Time;durP1;ratioP1;P1;durP2;ratioP2;P2;SDS_P1;SDS_P2;PMS_P1;PMS_P2;Temp;Humidity;BMP_temperature;BMP_pressure;BME280_temperature;BME280_humidity;BME280_pressure;Samples;Min_cycle;Max_cycle;Signal;HPM_P1;HPM_P2
2021/04/01 00:01:59;;;;;;;20.58;12.45;;;13.80;59.30;;;;;;5113810;28;20352;-36
2021/04/01 00:04:25;;;;;;;23.17;13.88;;;13.80;59.30;;;;;;5113508;28;20467;-36
2021/04/01 00:06:50;;;;;;;24.52;14.65;;;13.80;58.10;;;;;;5113586;28;20024;-38
2021/04/01 00:09:16;;;;;;;28.15;15.73;;;13.70;57.50;;;;;;5113829;28;20106;-36
2021/04/01 00:11:42;;;;;;;31.77;15.52;;;13.60;57.40;;;;;;5113758;28;20108;-36
2021/04/01 00:14:07;;;;;;;30.58;16.65;;;13.50;57.70;;;;;;5113749;28;20016;-36
2021/04/01 00:16:34;;;;;;;32.45;16.65;;;13.40;57.90;;;;;;5114043;28;20023;-36
2021/04/01 00:19:02;;;;;;;24.95;15.38;;;13.40;58.20;;;;;;5112975;28;20028;-36
2021/04/01 00:21:28;;;;;;;27.92;15.55;;;13.40;58.20;;;;;;5111990;28;20026;-36
2021/04/01 00:23:54;;;;;;;31.45;15.60;;;13.40;58.40;;;;;;5113518;28;20394;-36
2021/04/01 00:26:20;;;;;;;30.90;15.95;;;13.40;58.50;;;;;;5113337;28;20077;-36
2021/04/01 00:28:46;;;;;;;31.70;16.23;;;13.30;58.80;;;;;;5113344;28;20024;-36
2021/04/01 00:31:12;;;;;;;28.20;16.95;;;13.40;58.60;;;;;;5095079;28;20051;-36
2021/04/01 00:33:37;;;;;;;34.83;17.67;;;13.40;58.30;;;;;;5113109;28;20505;-36
2021/04/01 00:36:04;;;;;;;28.13;17.90;;;13.30;58.70;;;;;;5113161;28;20024;-36
2021/04/01 00:38:30;;;;;;;29.80;18.17;;;13.30;58.70;;;;;;5113385;28;20031;-36
2021/04/01 00:40:56;;;;;;;30.00;18.33;;;13.30;58.80;;;;;;5113185;28;20058;-38
2021/04/01 00:43:21;;;;;;;31.98;18.17;;;13.30;58.90;;;;;;5112955;28;20495;-36
2021/04/01 00:45:47;;;;;;;30.92;19.40;;;13.30;58.70;;;;;;5113350;28;20375;-36
2021/04/01 00:48:13;;;;;;;37.08;20.23;;;13.30;59.10;;;;;;5113045;28;20047;-36
2021/04/01 00:50:39;;;;;;;33.72;18.65;;;13.50;57.80;;;;;;5111552;28;20027;-37
2021/04/01 00:53:04;;;;;;;30.35;18.02;;;13.30;59.10;;;;;;5114539;28;20028;-36
2021/04/01 00:55:30;;;;;;;28.65;17.15;;;13.30;60.00;;;;;;5116743;28;20019;-36
2021/04/01 00:58:02;;;;;;;32.92;17.52;;;13.20;60.30;;;;;;5116947;28;20026;-36
2021/04/01 01:00:32;;;;;;;30.23;17.63;;;13.10;60.50;;;;;;5116711;28;20023;-36
2021/04/01 01:02:58;;;;;;;32.22;16.70;;;13.10;60.60;;;;;;5116700;28;20081;-36
2021/04/01 01:05:25;;;;;;;31.33;18.42;;;13.10;60.70;;;;;;5116200;28;20422;-36
2021/04/01 01:07:51;;;;;;;33.15;19.52;;;13.20;61.00;;;;;;5116446;28;20432;-36
2021/04/01 01:10:21;;;;;;;33.65;17.88;;;13.20;60.80;;;;;;5116226;28;20112;-36
2021/04/01 01:12:47;;;;;;;33.35;17.48;;;13.20;60.50;;;;;;5116146;28;20030;-36
2021/04/01 01:15:14;;;;;;;35.03;20.13;;;13.30;61.10;;;;;;5116410;28;20101;-36
2021/04/01 01:17:40;;;;;;;28.98;18.45;;;13.30;61.10;;;;;;5116349;28;20016;-36
2021/04/01 01:20:08;;;;;;;28.98;18.00;;;13.30;61.00;;;;;;5116174;28;20073;-36
2021/04/01 01:22:36;;;;;;;35.17;20.13;;;13.30;61.20;;;;;;5114679;28;20034;-44
2021/04/01 01:25:05;;;;;;;30.20;18.65;;;13.30;61.40;;;;;;5116030;28;20023;-36
2021/04/01 01:27:31;;;;;;;28.48;17.23;;;13.30;61.10;;;;;;5116036;28;20424;-36
2021/04/01 01:29:57;;;;;;;27.90;18.80;;;13.30;61.50;;;;;;5116811;28;20027;-36
2021/04/01 01:32:23;;;;;;;31.85;19.05;;;13.40;61.30;;;;;;5115924;28;20046;-37
2021/04/01 01:34:48;;;;;;;24.48;17.05;;;13.30;61.60;;;;;;5114702;28;20019;-37
2021/04/01 01:37:14;;;;;;;27.08;15.90;;;13.20;62.20;;;;;;5114779;28;20048;-37
2021/04/01 01:39:40;;;;;;;35.10;19.95;;;13.20;62.80;;;;;;5115993;28;20031;-36
2021/04/01 01:42:07;;;;;;;34.80;19.95;;;13.10;62.40;;;;;;5115920;28;20031;-37
2021/04/01 01:44:32;;;;;;;30.85;18.83;;;13.00;63.10;;;;;;5115916;28;20024;-36
2021/04/01 01:46:59;;;;;;;32.90;18.48;;;12.90;63.10;;;;;;5116087;28;20077;-36
2021/04/01 01:49:25;;;;;;;29.25;18.77;;;12.80;63.30;;;;;;5114189;28;20055;-37
2021/04/01 01:51:52;;;;;;;37.72;19.73;;;12.80;63.30;;;;;;5115542;28;20467;-36
2021/04/01 01:54:18;;;;;;;28.08;16.88;;;12.80;63.20;;;;;;5115624;28;20027;-36
2021/04/01 01:56:44;;;;;;;34.20;17.75;;;12.90;64.20;;;;;;5115584;27;20043;-36
2021/04/01 01:59:10;;;;;;;27.75;16.48;;;12.90;64.20;;;;;;5115829;28;20391;-36
2021/04/01 02:01:35;;;;;;;34.03;18.83;;;12.90;63.70;;;;;;5115429;28;20094;-36
2021/04/01 02:04:05;;;;;;;33.78;19.70;;;12.90;63.10;;;;;;5114539;28;20471;-36
2021/04/01 02:06:31;;;;;;;34.17;20.60;;;12.90;63.30;;;;;;5114078;28;20024;-36
2021/04/01 02:08:59;;;;;;;27.85;18.63;;;13.00;63.30;;;;;;5115628;28;20102;-36
2021/04/01 02:11:25;;;;;;;32.47;18.48;;;13.00;63.10;;;;;;5115234;28;20153;-36
2021/04/01 02:13:52;;;;;;;39.83;20.95;;;12.90;62.60;;;;;;5115419;28;20061;-36
2021/04/01 02:16:17;;;;;;;39.25;20.80;;;12.80;62.80;;;;;;5115250;28;20051;-36
2021/04/01 02:18:43;;;;;;;40.58;22.05;;;12.80;62.50;;;;;;5115175;28;20097;-36
2021/04/01 02:21:10;;;;;;;41.20;23.80;;;12.80;61.70;;;;;;5115069;28;20049;-36
2021/04/01 02:23:37;;;;;;;42.13;21.48;;;12.90;61.90;;;;;;5115432;28;20340;-36
2021/04/01 02:26:05;;;;;;;43.97;21.63;;;12.90;62.10;;;;;;5115049;28;20023;-36
2021/04/01 02:28:32;;;;;;;38.92;21.75;;;12.90;62.60;;;;;;5115106;28;20028;-37
2021/04/01 02:31:09;;;;;;;32.95;19.42;;;12.80;62.20;;;;;;5114801;28;20055;-37
2021/04/01 02:33:37;;;;;;;31.33;19.05;;;12.90;62.80;;;;;;5114834;28;20031;-37
2021/04/01 02:36:05;;;;;;;33.85;18.60;;;12.90;63.20;;;;;;5114885;28;20047;-37
2021/04/01 02:38:31;;;;;;;34.70;20.67;;;12.90;63.50;;;;;;5115068;28;20016;-37
2021/04/01 02:40:57;;;;;;;34.90;20.73;;;13.00;62.80;;;;;;5114916;28;20027;-37
2021/04/01 02:43:33;;;;;;;34.60;22.20;;;13.00;63.60;;;;;;5114548;28;20027;-37
2021/04/01 02:46:00;;;;;;;38.90;22.23;;;13.10;62.50;;;;;;5114596;28;20024;-37
2021/04/01 02:48:26;;;;;;;38.72;21.73;;;13.10;62.70;;;;;;5114423;28;20054;-37
2021/04/01 02:50:52;;;;;;;33.65;20.70;;;13.10;62.40;;;;;;5114505;28;20027;-37
2021/04/01 02:53:18;;;;;;;37.42;20.48;;;13.10;63.20;;;;;;5114724;28;20482;-37
2021/04/01 02:55:44;;;;;;;32.53;19.35;;;13.10;63.30;;;;;;5115037;28;20095;-37
2021/04/01 02:58:09;;;;;;;37.22;21.67;;;13.10;63.20;;;;;;5114532;28;20111;-37
2021/04/01 03:00:37;;;;;;;40.08;21.65;;;13.10;63.00;;;;;;5114732;28;20023;-37
2021/04/01 03:03:08;;;;;;;37.58;21.45;;;13.10;62.80;;;;;;5114659;28;20428;-37
2021/04/01 03:05:33;;;;;;;42.25;23.20;;;13.10;62.90;;;;;;5114888;28;20024;-37
2021/04/01 03:07:59;;;;;;;35.20;21.92;;;13.00;62.90;;;;;;5113029;28;20028;-37
2021/04/01 03:10:26;;;;;;;33.22;21.25;;;13.00;63.40;;;;;;5114560;28;20027;-37
2021/04/01 03:12:52;;;;;;;36.25;20.40;;;13.10;63.20;;;;;;5114312;28;20107;-37
2021/04/01 03:15:18;;;;;;;33.95;19.67;;;13.10;63.30;;;;;;5113984;28;20439;-37
2021/04/01 03:17:43;;;;;;;34.83;20.17;;;13.10;63.30;;;;;;5114405;28;20085;-37
2021/04/01 03:20:11;;;;;;;43.13;22.88;;;13.10;63.00;;;;;;5114339;28;20023;-36
2021/04/01 03:22:40;;;;;;;36.10;22.15;;;13.10;62.20;;;;;;5114101;28;20076;-37
2021/04/01 03:25:11;;;;;;;37.05;20.42;;;13.10;62.20;;;;;;5115063;28;20363;-37
2021/04/01 03:27:38;;;;;;;35.42;21.25;;;13.20;62.50;;;;;;5112768;28;20555;-37
2021/04/01 03:30:07;;;;;;;34.53;21.17;;;13.30;62.50;;;;;;5114164;28;20051;-36
2021/04/01 03:32:38;;;;;;;29.95;17.77;;;13.20;62.90;;;;;;5113744;28;20020;-37
2021/04/01 03:35:06;;;;;;;30.48;16.92;;;13.10;63.70;;;;;;5113896;28;20145;-37
2021/04/01 03:37:32;;;;;;;34.58;20.95;;;13.10;63.60;;;;;;5114039;28;20024;-37
2021/04/01 03:39:58;;;;;;;45.95;23.90;;;13.20;62.30;;;;;;5114054;28;20052;-37
2021/04/01 03:42:25;;;;;;;41.95;24.25;;;13.30;61.20;;;;;;5113773;28;20020;-38
2021/04/01 03:44:51;;;;;;;41.67;23.52;;;13.20;60.50;;;;;;5113896;28;20023;-37
2021/04/01 03:47:17;;;;;;;46.67;24.42;;;13.30;60.40;;;;;;5112561;28;20388;-37
2021/04/01 03:49:43;;;;;;;45.90;22.88;;;13.20;60.60;;;;;;5113879;28;20032;-37
2021/04/01 03:52:08;;;;;;;44.45;25.02;;;13.30;60.20;;;;;;5113760;28;20098;-37
2021/04/01 03:54:34;;;;;;;39.58;23.52;;;13.30;61.10;;;;;;5113405;28;20471;-37
2021/04/01 03:57:01;;;;;;;47.22;25.23;;;13.40;60.20;;;;;;5113774;28;20034;-37
2021/04/01 03:59:37;;;;;;;47.30;24.92;;;13.30;60.20;;;;;;5113688;28;20134;-37
2021/04/01 04:04:45;;;;;;;42.17;23.90;;;13.20;60.60;;;;;;5113871;28;20062;-37
2021/04/01 04:17:47;;;;;;;46.97;24.52;;;13.10;61.40;;;;;;5101154;28;20032;-36
2021/04/01 04:20:13;;;;;;;42.60;23.63;;;13.00;61.50;;;;;;5113478;28;20159;-36
2021/04/01 04:22:40;;;;;;;38.63;22.73;;;13.10;61.20;;;;;;5113239;28;20051;-36
2021/04/01 04:25:08;;;;;;;46.10;24.15;;;13.20;61.30;;;;;;5113303;28;20389;-36
2021/04/01 04:27:48;;;;;;;46.47;23.77;;;13.20;61.90;;;;;;5114251;28;20502;-36
2021/04/01 04:30:14;;;;;;;44.03;23.48;;;13.10;62.40;;;;;;5116058;28;20039;-36
2021/04/01 04:32:40;;;;;;;46.72;25.10;;;13.10;62.90;;;;;;5116957;28;20081;-36
2021/04/01 04:35:06;;;;;;;52.53;24.98;;;13.00;63.30;;;;;;5116992;28;20047;-36
2021/04/01 04:37:32;;;;;;;43.45;25.52;;;13.00;62.00;;;;;;5117109;28;20491;-36
2021/04/01 04:39:57;;;;;;;62.53;30.90;;;13.10;62.10;;;;;;5117102;27;20020;-37
2021/04/01 04:42:23;;;;;;;62.70;28.30;;;13.30;59.40;;;;;;5116833;28;20024;-36
2021/04/01 04:44:49;;;;;;;65.28;31.27;;;13.30;59.60;;;;;;5115479;28;20031;-36
2021/04/01 04:47:14;;;;;;;66.72;30.77;;;13.30;59.00;;;;;;5116728;28;20023;-36
2021/04/01 04:49:40;;;;;;;66.30;31.90;;;13.30;59.30;;;;;;5116423;28;20062;-36
2021/04/01 04:52:06;;;;;;;75.13;33.15;;;13.40;58.40;;;;;;5116839;28;20051;-36
2021/04/01 04:54:32;;;;;;;82.65;37.60;;;13.80;56.20;;;;;;5116756;28;20027;-37
2021/04/01 05:05:03;;;;;;;75.90;37.17;;;13.70;55.90;;;;;;5116553;28;20535;-37
2021/04/01 05:07:29;;;;;;;72.13;35.15;;;13.70;56.30;;;;;;5116995;28;20074;-37
2021/04/01 05:09:54;;;;;;;73.28;33.55;;;13.60;57.80;;;;;;5116590;28;20073;-37
2021/04/01 05:12:20;;;;;;;71.57;36.67;;;13.50;58.80;;;;;;5116196;28;20031;-36
2021/04/01 05:14:46;;;;;;;71.88;35.15;;;13.30;58.80;;;;;;5116430;28;20015;-36
2021/04/01 05:17:16;;;;;;;74.10;35.90;;;13.30;59.20;;;;;;5116139;28;20365;-36
2021/04/01 05:19:42;;;;;;;77.63;37.40;;;13.20;60.10;;;;;;5117248;28;20028;-37
2021/04/01 05:24:36;;;;;;;78.70;37.97;;;13.20;59.20;;;;;;5116498;28;20447;-36
2021/04/01 05:27:13;;;;;;;84.55;40.00;;;13.30;58.90;;;;;;5115969;28;20028;-36
2021/04/01 05:29:40;;;;;;;74.95;36.85;;;13.20;59.20;;;;;;5115913;28;20028;-37
2021/04/01 05:32:07;;;;;;;80.20;39.03;;;13.20;58.80;;;;;;5115871;28;20026;-37
2021/04/01 05:34:34;;;;;;;85.18;38.45;;;13.30;58.30;;;;;;5116124;28;20552;-37
2021/04/01 05:37:01;;;;;;;79.18;37.75;;;13.30;58.50;;;;;;5115920;28;20027;-36
2021/04/01 05:39:29;;;;;;;80.45;39.08;;;13.30;58.60;;;;;;5115048;28;20035;-36
2021/04/01 05:41:57;;;;;;;78.60;38.15;;;13.20;59.00;;;;;;5115483;28;20016;-37
2021/04/01 05:44:37;;;;;;;76.05;38.00;;;13.10;59.50;;;;;;5115528;28;20058;-36
2021/04/01 05:47:12;;;;;;;83.60;38.80;;;13.10;59.80;;;;;;5115767;28;20491;-36
2021/04/01 05:49:57;;;;;;;75.88;37.10;;;13.00;59.80;;;;;;5115397;28;20376;-36
2021/04/01 06:06:34;;;;;;;78.32;37.78;;;12.70;61.60;;;;;;5114608;28;20024;-37
2021/04/01 06:09:02;;;;;;;76.53;38.33;;;12.80;61.30;;;;;;5115257;28;20104;-37
2021/04/01 06:11:28;;;;;;;144.32;44.63;;;12.70;61.10;;;;;;5115588;28;20024;-36
2021/04/01 06:16:38;;;;;;;74.40;36.35;;;12.80;61.50;;;;;;5115130;28;20110;-36
2021/04/01 06:19:07;;;;;;;72.82;37.17;;;12.70;62.50;;;;;;5114799;28;20019;-37
2021/04/01 06:21:42;;;;;;;75.72;39.10;;;12.50;63.20;;;;;;5114681;28;20359;-37
2021/04/01 06:24:27;;;;;;;72.32;36.90;;;12.50;63.10;;;;;;5114664;28;20020;-37
2021/04/01 06:27:11;;;;;;;70.88;34.67;;;12.50;62.70;;;;;;5114436;28;20015;-37
2021/04/01 06:29:39;;;;;;;88.18;39.10;;;12.80;61.60;;;;;;5113145;28;20064;-37
2021/04/01 06:32:24;;;;;;;60.53;33.92;;;13.00;61.00;;;;;;5114438;28;20053;-37
2021/04/01 06:34:50;;;;;;;78.70;35.92;;;12.90;61.40;;;;;;5114414;28;20035;-36
2021/04/01 06:40:05;;;;;;;64.05;31.88;;;13.20;60.60;;;;;;5114483;28;20016;-37
2021/04/01 06:42:41;;;;;;;66.22;31.90;;;13.30;60.30;;;;;;5114630;28;20034;-37
2021/04/01 06:45:09;;;;;;;66.65;34.03;;;13.30;60.00;;;;;;5114561;28;20023;-37
2021/04/01 06:47:37;;;;;;;65.55;34.40;;;13.50;59.20;;;;;;5114280;28;20383;-38
2021/04/01 06:50:19;;;;;;;68.28;35.17;;;13.50;59.30;;;;;;5114347;28;20027;-37
2021/04/01 06:53:05;;;;;;;59.10;32.20;;;13.40;59.90;;;;;;5115078;28;20055;-38
2021/04/01 06:55:47;;;;;;;73.22;35.15;;;13.40;60.00;;;;;;5114637;28;20107;-38
2021/04/01 06:58:35;;;;;;;68.88;34.72;;;13.80;58.90;;;;;;5114390;28;20031;-38
2021/04/01 07:01:09;;;;;;;68.45;32.60;;;13.70;58.90;;;;;;5113152;28;20029;-37
2021/04/01 07:03:49;;;;;;;74.32;34.97;;;13.80;58.70;;;;;;5113741;28;20031;-37
2021/04/01 07:06:35;;;;;;;69.43;34.67;;;13.90;58.40;;;;;;5114040;28;20023;-38
2021/04/01 07:09:11;;;;;;;72.45;35.72;;;14.00;58.30;;;;;;5113841;28;20040;-37
2021/04/01 07:11:38;;;;;;;72.35;36.75;;;14.30;57.40;;;;;;5114018;28;20073;-37
2021/04/01 07:14:27;;;;;;;78.03;38.03;;;14.30;57.20;;;;;;5111882;28;20019;-37
2021/04/01 07:17:01;;;;;;;71.00;36.30;;;14.80;55.90;;;;;;5114304;28;20045;-37
2021/04/01 07:47:18;;;;;;;87.63;42.08;;;16.40;47.50;;;;;;5113265;28;20027;-37
2021/04/01 07:49:48;;;;;;;100.68;43.63;;;16.30;48.20;;;;;;5112841;28;20154;-37
2021/04/01 07:52:17;;;;;;;102.37;46.20;;;16.60;47.50;;;;;;5112788;28;20027;-37
2021/04/01 07:54:56;;;;;;;102.97;46.87;;;16.80;46.00;;;;;;5112565;28;20485;-37
2021/04/01 08:00:15;;;;;;;98.00;43.88;;;16.60;46.70;;;;;;5113749;28;20020;-37
2021/04/01 08:02:50;;;;;;;106.22;45.90;;;16.90;46.30;;;;;;5116180;28;20068;-38
2021/04/01 08:05:33;;;;;;;100.43;49.05;;;17.30;45.20;;;;;;5117743;28;20452;-36
2021/04/01 08:08:02;;;;;;;100.60;45.55;;;17.30;45.20;;;;;;5117002;28;20459;-37
2021/04/01 08:10:32;;;;;;;100.13;45.95;;;17.30;45.40;;;;;;5116798;28;20038;-37
2021/04/01 08:13:02;;;;;;;97.32;44.40;;;17.40;45.50;;;;;;5115490;28;20502;-36
2021/04/01 08:15:34;;;;;;;102.50;44.97;;;17.60;45.60;;;;;;5116914;28;20039;-38
2021/04/01 08:18:51;;;;;;;95.72;45.45;;;18.00;44.90;;;;;;5116404;28;20028;-38
2021/04/01 08:21:00;;;;;;;100.88;48.88;;;17.90;44.50;;;;;;5107792;28;20032;-37
2021/04/01 08:23:36;;;;;;;108.97;48.10;;;18.00;43.50;;;;;;5116563;28;20481;-37
2021/04/01 08:34:31;;;;;;;99.20;45.20;;;18.80;42.70;;;;;;5116590;28;20015;-38
2021/04/01 08:37:01;;;;;;;93.30;44.58;;;19.30;41.50;;;;;;5116944;28;20049;-38
2021/04/01 08:39:26;;;;;;;97.83;45.97;;;19.20;41.50;;;;;;5114858;28;20016;-37
2021/04/01 08:42:16;;;;;;;90.97;45.42;;;19.40;41.30;;;;;;5116105;28;20076;-38
2021/04/01 08:45:18;;;;;;;92.97;45.30;;;19.90;39.70;;;;;;5116879;28;20015;-37
2021/04/01 08:47:57;;;;;;;100.32;48.50;;;20.60;38.50;;;;;;5116347;27;20550;-37
2021/04/01 08:50:33;;;;;;;94.43;43.10;;;20.10;38.70;;;;;;5116290;28;20037;-37
2021/04/01 08:53:23;;;;;;;91.57;44.78;;;20.60;37.40;;;;;;5116560;28;20490;-37
2021/04/01 08:56:30;;;;;;;91.03;45.30;;;20.80;36.90;;;;;;5116445;28;20020;-38
2021/04/01 08:59:22;;;;;;;81.00;40.33;;;20.70;37.10;;;;;;5115810;28;20028;-39
2021/04/01 09:01:51;;;;;;;91.57;45.20;;;21.00;36.40;;;;;;5115844;28;20089;-37
2021/04/01 09:04:33;;;;;;;92.15;43.15;;;21.30;35.10;;;;;;5115776;28;20080;-37
2021/04/01 09:07:13;;;;;;;87.38;42.83;;;21.20;35.50;;;;;;5116451;27;20479;-36
2021/04/01 09:09:40;;;;;;;83.60;40.83;;;20.80;36.20;;;;;;5114385;28;20026;-38
2021/04/01 09:12:37;;;;;;;82.40;40.25;;;21.30;34.60;;;;;;5115605;28;20039;-38
2021/04/01 09:15:08;;;;;;;84.95;38.00;;;21.80;32.50;;;;;;5114438;28;20114;-38
2021/04/01 09:17:37;;;;;;;76.72;39.45;;;21.80;32.90;;;;;;5116408;28;20020;-38
2021/04/01 09:20:14;;;;;;;88.53;41.95;;;22.50;32.40;;;;;;5115876;28;20020;-37
2021/04/01 09:22:50;;;;;;;85.93;40.17;;;21.60;34.60;;;;;;5114363;28;20031;-38
2021/04/01 09:25:17;;;;;;;83.30;42.33;;;22.20;33.30;;;;;;5116464;28;20033;-37
2021/04/01 09:27:59;;;;;;;85.72;40.80;;;22.30;33.90;;;;;;5115686;28;20120;-38
2021/04/01 09:30:25;;;;;;;78.60;39.33;;;22.40;33.50;;;;;;5116037;28;20085;-38
2021/04/01 09:32:55;;;;;;;82.68;39.78;;;22.40;33.50;;;;;;5114014;28;20459;-38
2021/04/01 09:35:23;;;;;;;82.43;39.30;;;22.80;33.10;;;;;;5116796;28;20024;-38
2021/04/01 09:38:00;;;;;;;79.80;41.30;;;22.40;32.90;;;;;;5115847;28;20027;-38
2021/04/01 09:40:32;;;;;;;71.72;36.25;;;21.90;34.00;;;;;;5114977;28;20489;-37
2021/04/01 09:43:12;;;;;;;80.38;38.03;;;21.50;34.40;;;;;;5115476;28;20069;-40
2021/04/01 09:45:38;;;;;;;;;;;21.90;35.00;;;;;;5115905;28;20027;-38
2021/04/01 09:48:04;;;;;;;88.63;40.58;;;21.40;36.00;;;;;;5114898;28;20263;-37
2021/04/01 09:50:33;;;;;;;83.75;38.80;;;22.10;34.60;;;;;;5096288;28;20066;-38
2021/04/01 09:53:01;;;;;;;77.82;37.85;;;23.20;32.50;;;;;;5114282;28;20479;-37
2021/04/01 09:55:40;;;;;;;85.38;41.28;;;23.10;32.40;;;;;;5114676;28;20034;-37
2021/04/01 09:58:26;;;;;;;82.10;42.28;;;23.30;31.70;;;;;;5113566;28;20383;-38
2021/04/01 10:03:24;;;;;;;84.32;42.50;;;23.80;31.70;;;;;;5114629;28;20498;-38
2021/04/01 10:05:52;;;;;;;91.30;42.95;;;24.00;31.70;;;;;;5115182;27;20023;-47
2021/04/01 10:08:28;;;;;;;85.82;41.95;;;23.80;31.40;;;;;;5115628;28;20504;-37
2021/04/01 10:10:59;;;;;;;90.30;42.35;;;23.30;32.70;;;;;;5115138;27;20067;-37
2021/04/01 10:13:28;;;;;;;78.85;43.05;;;23.80;32.10;;;;;;5113818;28;20445;-42
2021/04/01 10:15:56;;;;;;;95.82;46.38;;;23.70;32.60;;;;;;5113318;28;20107;-38
2021/04/01 10:18:34;;;;;;;92.13;42.50;;;23.90;32.20;;;;;;5114408;28;20479;-38
2021/04/01 10:21:09;;;;;;;87.43;43.80;;;23.70;32.80;;;;;;5115202;28;20015;-38
2021/04/01 10:23:55;;;;;;;82.70;42.10;;;23.10;33.70;;;;;;5114712;28;20524;-37
2021/04/01 10:26:27;;;;;;;92.68;42.05;;;22.30;35.00;;;;;;5113038;28;20044;-40
2021/04/01 10:29:15;;;;;;;88.90;42.35;;;22.80;34.30;;;;;;5113964;28;20023;-37
2021/04/01 10:31:47;;;;;;;91.20;41.80;;;23.90;31.20;;;;;;5098281;28;20128;-37
2021/04/01 10:34:23;;;;;;;93.13;44.30;;;23.00;33.00;;;;;;5113131;28;20360;-37
2021/04/01 10:36:51;;;;;;;88.47;43.58;;;23.40;33.10;;;;;;5114541;28;20201;-38
2021/04/01 10:39:18;;;;;;;88.72;41.75;;;24.30;32.10;;;;;;5114336;28;20024;-37
2021/04/01 10:41:50;;;;;;;91.35;43.67;;;24.50;30.60;;;;;;5114556;28;20079;-38
2021/04/01 10:44:18;;;;;;;89.40;43.33;;;24.00;31.70;;;;;;5113948;28;20027;-37
2021/04/01 10:46:53;;;;;;;82.50;39.45;;;23.90;31.80;;;;;;5113618;28;20031;-37
2021/04/01 10:49:21;;;;;;;88.40;44.15;;;23.30;33.00;;;;;;5113656;28;20031;-37
2021/04/01 10:51:55;;;;;;;94.13;46.47;;;23.40;33.10;;;;;;5116317;28;20068;-37
2021/04/01 10:54:23;;;;;;;81.60;43.00;;;23.60;32.70;;;;;;5113152;28;20032;-38
2021/04/01 10:56:54;;;;;;;80.47;40.78;;;23.50;32.50;;;;;;5114271;28;20028;-38
2021/04/01 10:59:33;;;;;;;82.07;43.00;;;23.30;33.10;;;;;;5114295;28;20172;-37
2021/04/01 11:02:02;;;;;;;84.97;44.33;;;23.50;33.30;;;;;;5114092;28;20046;-37
2021/04/01 11:04:30;;;;;;;77.75;40.05;;;24.50;31.80;;;;;;5113809;28;20024;-38
2021/04/01 11:07:01;;;;;;;69.03;40.05;;;23.90;32.40;;;;;;5114046;28;20097;-38
2021/04/01 11:09:31;;;;;;;73.97;41.42;;;23.90;32.80;;;;;;5112314;28;20020;-38
2021/04/01 11:12:14;;;;;;;78.55;42.05;;;23.90;32.40;;;;;;5113964;28;20382;-38
2021/04/01 11:14:42;;;;;;;75.63;40.95;;;22.80;34.60;;;;;;5113625;28;20100;-38
2021/04/01 11:17:09;;;;;;;81.38;46.10;;;22.40;36.00;;;;;;5113633;28;20107;-37
2021/04/01 11:19:36;;;;;;;78.63;43.40;;;22.40;36.40;;;;;;5113457;28;20030;-38
2021/04/01 11:22:03;;;;;;;71.80;40.72;;;23.20;35.20;;;;;;5114598;28;20031;-38
2021/04/01 11:24:32;;;;;;;74.53;43.05;;;22.40;36.20;;;;;;5115838;28;20019;-38
2021/04/01 11:27:24;;;;;;;81.72;42.53;;;22.30;37.00;;;;;;5113832;28;20176;-38
2021/04/01 11:29:55;;;;;;;79.00;41.35;;;23.50;34.90;;;;;;5112674;28;20047;-38
2021/04/01 11:32:23;;;;;;;79.47;42.42;;;23.50;34.90;;;;;;5112383;28;20071;-38
2021/04/01 11:34:51;;;;;;;74.43;43.97;;;23.60;34.10;;;;;;5114067;28;20020;-39
2021/04/01 11:37:37;;;;;;;77.80;46.28;;;23.10;35.40;;;;;;5112573;28;20111;-37
2021/04/01 11:40:08;;;;;;;77.75;42.72;;;23.20;34.90;;;;;;5112942;28;20019;-38
2021/04/01 11:42:34;;;;;;;81.68;43.60;;;23.30;34.80;;;;;;5114316;28;20027;-38
2021/04/01 11:45:04;;;;;;;79.75;43.63;;;22.60;35.80;;;;;;5113336;28;20031;-38
2021/04/01 11:47:31;;;;;;;86.40;46.42;;;21.30;38.50;;;;;;5113535;28;20510;-38
2021/04/01 11:49:58;;;;;;;79.65;46.85;;;21.50;38.50;;;;;;5113930;28;20023;-37
2021/04/01 11:52:24;;;;;;;89.38;47.85;;;21.70;37.60;;;;;;5112329;28;20032;-38
2021/04/01 11:54:52;;;;;;;89.03;50.17;;;21.70;37.40;;;;;;5113685;28;20028;-38
2021/04/01 11:57:26;;;;;;;86.88;49.53;;;21.60;37.50;;;;;;5113382;28;20019;-37
2021/04/01 11:59:55;;;;;;;90.03;50.55;;;22.00;36.80;;;;;;5113188;28;20024;-37
2021/04/01 12:02:23;;;;;;;88.03;49.30;;;22.00;36.50;;;;;;5113554;28;20031;-37
2021/04/01 12:04:52;;;;;;;88.55;48.65;;;22.00;36.10;;;;;;5113244;28;20110;-38
2021/04/01 12:07:18;;;;;;;89.50;49.88;;;22.50;35.30;;;;;;5113490;28;20028;-38
2021/04/01 12:09:52;;;;;;;91.15;50.38;;;21.50;37.30;;;;;;5113284;28;20031;-40
2021/04/01 12:12:37;;;;;;;82.25;47.70;;;21.50;38.00;;;;;;5113059;28;20027;-37
2021/04/01 12:15:23;;;;;;;88.60;48.53;;;20.90;39.00;;;;;;5112860;28;20035;-37
2021/04/01 12:17:54;;;;;;;81.78;42.97;;;19.80;41.20;;;;;;5112911;28;20027;-37
2021/04/01 12:20:21;;;;;;;78.05;42.30;;;19.70;41.40;;;;;;5111633;28;20476;-37
2021/04/01 12:22:47;;;;;;;75.50;40.30;;;19.80;41.50;;;;;;5113233;28;20020;-38
2021/04/01 12:25:20;;;;;;;67.82;35.40;;;18.90;43.00;;;;;;5113082;28;20024;-37
2021/04/01 12:27:55;;;;;;;61.50;33.00;;;19.40;41.30;;;;;;5112838;28;20027;-36
2021/04/01 12:30:40;;;;;;;50.95;27.90;;;19.90;39.30;;;;;;5113238;28;20486;-36
2021/04/01 12:33:11;;;;;;;54.95;25.73;;;19.80;39.30;;;;;;5113145;28;20069;-37
2021/04/01 12:35:36;;;;;;;;;;;19.30;39.60;;;;;;5114183;28;20459;-37
2021/04/01 12:38:04;;;;;;;49.92;25.67;;;19.90;38.80;;;;;;5111852;28;19952;-37
2021/04/01 12:40:37;;;;;;;52.20;25.95;;;19.50;39.60;;;;;;5113374;28;20098;-37
2021/04/01 12:43:05;;;;;;;42.25;22.42;;;19.30;41.00;;;;;;5111376;28;20359;-38
2021/04/01 12:45:33;;;;;;;37.70;22.52;;;19.20;40.40;;;;;;5112750;28;20087;-37
2021/04/01 12:48:11;;;;;;;38.58;22.13;;;19.60;40.00;;;;;;5112809;28;20043;-39
2021/04/01 12:50:40;;;;;;;35.03;19.88;;;19.70;40.10;;;;;;5117092;28;20023;-37
2021/04/01 12:53:06;;;;;;;26.35;12.32;;;20.30;38.60;;;;;;5116281;28;20087;-37
2021/04/01 12:55:39;;;;;;;27.13;13.93;;;19.80;37.10;;;;;;5115142;28;20110;-37
2021/04/01 12:58:16;;;;;;;21.05;12.77;;;19.70;38.00;;;;;;5116732;28;20023;-37
2021/04/01 13:00:53;;;;;;;25.00;12.77;;;19.40;38.50;;;;;;5117215;28;20020;-38
2021/04/01 13:03:19;;;;;;;25.67;13.40;;;18.60;40.50;;;;;;5116495;28;20031;-36
2021/04/01 13:05:49;;;;;;;26.85;13.20;;;18.30;41.60;;;;;;5116834;27;20027;-37
2021/04/01 13:10:43;;;;;;;21.60;12.05;;;18.70;41.90;;;;;;5116372;28;20027;-43
2021/04/01 13:13:10;;;;;;;20.13;11.40;;;18.50;42.70;;;;;;5116514;28;20371;-36
2021/04/01 13:15:38;;;;;;;23.27;11.88;;;18.00;44.50;;;;;;5116192;28;20015;-38
2021/04/01 13:18:05;;;;;;;19.92;9.90;;;18.40;43.70;;;;;;5116958;27;20024;-37
2021/04/01 13:20:31;;;;;;;21.70;10.77;;;18.20;44.00;;;;;;5118091;28;20058;-37
2021/04/01 13:25:23;;;;;;;18.88;9.63;;;18.20;45.10;;;;;;5116112;28;20114;-36
2021/04/01 13:27:51;;;;;;;14.68;8.27;;;18.20;45.50;;;;;;5115997;28;20023;-36
2021/04/01 13:30:22;;;;;;;14.20;8.18;;;18.50;44.50;;;;;;5114000;28;20020;-36
2021/04/01 13:38:09;;;;;;;10.85;5.32;;;17.90;46.60;;;;;;5115858;28;20024;-36
2021/04/01 13:40:41;;;;;;;13.55;4.85;;;17.80;46.80;;;;;;5115613;28;20024;-36
2021/04/01 13:43:08;;;;;;;14.50;4.20;;;18.20;46.40;;;;;;5115670;28;20020;-36
2021/04/01 13:45:34;;;;;;;14.65;4.72;;;18.20;45.50;;;;;;5115458;28;20098;-36
2021/04/01 13:48:02;;;;;;;11.10;4.55;;;18.20;45.90;;;;;;5114777;28;20318;-36
2021/04/01 13:50:31;;;;;;;18.33;4.30;;;18.10;45.40;;;;;;5115674;28;20051;-37
2021/04/01 13:55:45;;;;;;;14.85;7.05;;;17.50;48.40;;;;;;5115860;28;20376;-36
2021/04/01 14:01:14;;;;;;;17.52;6.38;;;17.40;49.40;;;;;;5115419;28;20046;-37
2021/04/01 14:09:32;;;;;;;5.72;2.67;;;17.10;48.10;;;;;;5115944;28;20378;-36
2021/04/01 14:12:00;;;;;;;6.63;3.13;;;16.50;48.60;;;;;;5113640;28;20073;-36
2021/04/01 14:14:27;;;;;;;5.60;2.67;;;16.80;47.90;;;;;;5113655;28;20024;-37
2021/04/01 14:16:54;;;;;;;9.95;2.92;;;17.20;47.40;;;;;;5114170;28;20023;-36
2021/04/01 14:19:24;;;;;;;6.68;4.03;;;17.10;47.90;;;;;;5114850;28;20027;-37
2021/04/01 14:21:54;;;;;;;11.48;2.97;;;16.80;48.50;;;;;;5113198;28;20024;-38
2021/04/01 14:24:28;;;;;;;5.97;2.75;;;16.80;48.50;;;;;;5113299;28;20107;-36
2021/04/01 14:29:32;;;;;;;8.35;3.78;;;16.60;49.30;;;;;;5114472;28;20085;-37
2021/04/01 14:31:59;;;;;;;16.00;3.45;;;16.90;48.30;;;;;;5113954;28;20026;-36
2021/04/01 14:34:26;;;;;;;8.18;2.15;;;16.70;49.10;;;;;;5114276;28;20055;-35